»·PEaware :: N444QA KSNA-KSNA

N444QA :: KSNA-KSNA

FLIGHT INFORMATION

Flight Status: Arrived
Operator: Privately registered:
United States
More flights under this callsign
Pilot: Anonymous 20880 (20880)
Aircraft: CESSNA 172 SKYHAWK
(C172)
More flights by this aircraft type
Origin: KSNA John Wayne-Orange Co
United States
Destination: KSNA John Wayne-Orange Co
United States
More flights between these airports :: More routes between these airports
Route: SLI
File this flight plan on PilotEdge
Remarks:
Altitude:
(Current/Filed)
3,000ft
Speed:
(Current/Filed)
110kts
Departed: 11-Dec-18 10:17 PM
Arrived: 11-Dec-18 10:56 PM
Distance/Time
Traveled:
0nm/0:38
Distance/Time
To Go:
Arrived

Flight Plot

Page will automatically refresh every two minutes.


Map Options




Map Legend


Flown Route
Filed Route
Departure Airport
Arrival Airport
Navaid (VOR, NDB)
Fix

Horizontal Profiles

Position Reports

Time Latitude Longitude Heading Altitude Ground
Speed
11-Dec-18 22:04 33.676080 -117.870909 219 60ft 0kts
11-Dec-18 22:05 33.676080 -117.870909 219 60ft 0kts
11-Dec-18 22:06 33.676080 -117.870909 219 60ft 0kts
11-Dec-18 22:07 33.676080 -117.870909 219 60ft 0kts
11-Dec-18 22:08 33.676080 -117.870909 219 60ft 0kts
11-Dec-18 22:09 33.676080 -117.870909 219 60ft 0kts
11-Dec-18 22:10 33.676080 -117.870909 219 60ft 0kts
11-Dec-18 22:11 33.676080 -117.870909 219 60ft 0kts
11-Dec-18 22:12 33.677111 -117.869412 28 60ft 26kts
11-Dec-18 22:13 33.681276 -117.866616 106 60ft 5kts
11-Dec-18 22:14 33.681249 -117.866529 116 60ft 0kts
11-Dec-18 22:15 33.681249 -117.866529 116 60ft 0kts
11-Dec-18 22:16 33.677479 -117.867738 206 60ft 78kts
11-Dec-18 22:17 33.658950 -117.887343 226 970ft 98kts
11-Dec-18 22:18 33.642567 -117.914374 230 1832ft 103kts
11-Dec-18 22:19 33.624185 -117.942761 228 2545ft 107kts
11-Dec-18 22:20 33.624239 -117.964549 24 2958ft 114kts
11-Dec-18 22:21 33.656811 -117.952187 18 3051ft 126kts
11-Dec-18 22:22 33.690447 -117.937944 20 3027ft 131kts
11-Dec-18 22:23 33.724795 -117.923592 21 2997ft 130kts
11-Dec-18 22:24 33.757680 -117.906478 31 3002ft 128kts
11-Dec-18 22:25 33.788439 -117.885186 30 3039ft 127kts
11-Dec-18 22:26 33.819260 -117.863925 30 3035ft 128kts
11-Dec-18 22:27 33.850440 -117.842613 29 3028ft 128kts
11-Dec-18 22:28 33.881628 -117.821530 31 3009ft 129kts
11-Dec-18 22:29 33.912196 -117.798980 30 2985ft 129kts
11-Dec-18 22:30 33.942546 -117.776233 31 2988ft 129kts
11-Dec-18 22:31 33.973144 -117.754312 31 3022ft 126kts
11-Dec-18 22:32 33.962179 -117.733978 178 3004ft 132kts
11-Dec-18 22:33 33.925703 -117.734480 180 3033ft 134kts
11-Dec-18 22:34 33.888757 -117.735978 179 3007ft 133kts
11-Dec-18 22:35 33.851870 -117.735668 182 3004ft 132kts
11-Dec-18 22:36 33.815413 -117.741655 197 2992ft 135kts
11-Dec-18 22:37 33.812877 -117.782319 279 2937ft 135kts
11-Dec-18 22:38 33.818786 -117.826684 280 2941ft 135kts
11-Dec-18 22:39 33.829836 -117.870657 287 2828ft 137kts
11-Dec-18 22:40 33.840837 -117.914542 285 2767ft 137kts
11-Dec-18 22:41 33.850791 -117.958573 303 2689ft 137kts
11-Dec-18 22:42 33.878569 -117.954485 51 2992ft 117kts
11-Dec-18 22:43 33.900425 -117.922312 51 3001ft 127kts
11-Dec-18 22:44 33.921040 -117.888080 83 2992ft 127kts
11-Dec-18 22:45 33.909191 -117.848141 111 3000ft 127kts
11-Dec-18 22:46 33.895558 -117.808639 111 3002ft 127kts
11-Dec-18 22:47 33.881807 -117.769104 111 3006ft 128kts
11-Dec-18 22:48 33.852480 -117.754271 197 3002ft 133kts
11-Dec-18 22:49 33.820567 -117.776673 207 3008ft 133kts
11-Dec-18 22:50 33.788311 -117.797342 206 2651ft 127kts
11-Dec-18 22:51 33.757272 -117.817053 205 2049ft 125kts
11-Dec-18 22:52 33.730998 -117.834090 206 1508ft 95kts
11-Dec-18 22:53 33.704938 -117.850349 204 643ft 107kts
11-Dec-18 22:54 33.682540 -117.864495 203 124ft 73kts
11-Dec-18 22:55 33.671883 -117.871035 199 60ft 28kts
11-Dec-18 22:56 33.670200 -117.873731 305 60ft 1kts
11-Dec-18 22:57 33.671115 -117.874249 334 60ft 0kts
11-Dec-18 22:58 33.671115 -117.874249 334 60ft 0kts
11-Dec-18 22:59 33.671115 -117.874249 334 60ft 0kts
11-Dec-18 23:00 33.671115 -117.874249 334 60ft 0kts
11-Dec-18 23:01 33.671115 -117.874249 334 60ft 0kts

Navigation Log

Ident Type
Flight plan parsing failed, navigation log unavailable